createdAt,value
2022-07-28T00:00:24.521Z,14.60
2022-07-28T00:02:52.469Z,14.50
2022-07-28T00:05:20.492Z,14.50
2022-07-28T00:07:50.162Z,14.50
2022-07-28T00:10:18.154Z,14.50
2022-07-28T00:12:47.455Z,14.50
2022-07-28T00:15:15.873Z,14.50
2022-07-28T00:17:43.805Z,14.50
2022-07-28T00:20:12.600Z,14.40
2022-07-28T00:22:43.171Z,14.40
2022-07-28T00:25:11.543Z,14.40
2022-07-28T00:27:39.597Z,14.40
2022-07-28T00:30:10.474Z,14.40
2022-07-28T00:32:39.096Z,14.40
2022-07-28T00:35:08.090Z,14.40
2022-07-28T00:37:39.740Z,14.40
2022-07-28T00:40:09.837Z,14.40
2022-07-28T00:42:37.788Z,14.40
2022-07-28T00:45:06.848Z,14.40
2022-07-28T00:47:36.131Z,14.40
2022-07-28T00:50:04.307Z,14.30
2022-07-28T00:52:33.044Z,14.40
2022-07-28T00:55:01.622Z,14.40
2022-07-28T00:57:29.556Z,14.40
2022-07-28T00:59:57.537Z,14.40
2022-07-28T01:02:25.569Z,14.40
2022-07-28T01:04:54.973Z,14.40
2022-07-28T01:07:32.599Z,14.30
2022-07-28T01:10:07.418Z,14.30
2022-07-28T01:12:46.805Z,14.30
2022-07-28T01:15:24.088Z,14.30
2022-07-28T01:18:01.778Z,14.20
2022-07-28T01:20:35.714Z,14.20
2022-07-28T01:23:14.939Z,14.20
2022-07-28T01:25:50.853Z,14.10
2022-07-28T01:28:30.084Z,14.10
2022-07-28T01:31:03.437Z,14.10
2022-07-28T01:33:38.166Z,14.10
2022-07-28T01:36:11.674Z,14.10
2022-07-28T01:38:41.358Z,14.10
2022-07-28T01:41:13.733Z,14.10
2022-07-28T01:43:45.402Z,14.10
2022-07-28T01:46:17.538Z,14.10
2022-07-28T01:48:48.403Z,14.10
2022-07-28T01:51:18.184Z,14.10
2022-07-28T01:53:47.241Z,14.10
2022-07-28T01:56:16.746Z,14.10
2022-07-28T01:58:46.011Z,14.10
2022-07-28T02:01:16.982Z,14.10
2022-07-28T02:03:46.684Z,14.00
2022-07-28T02:06:16.253Z,14.00
2022-07-28T02:08:44.929Z,13.90
2022-07-28T02:11:30.287Z,13.90
2022-07-28T02:13:59.936Z,13.90
2022-07-28T02:16:31.378Z,13.90
2022-07-28T02:19:01.638Z,13.90
2022-07-28T02:21:32.277Z,13.90
2022-07-28T02:24:05.373Z,13.90
2022-07-28T02:26:37.911Z,13.90
2022-07-28T02:29:08.319Z,13.90
2022-07-28T02:31:44.072Z,13.90
2022-07-28T02:34:14.253Z,13.90
2022-07-28T02:36:54.993Z,13.80
2022-07-28T02:39:26.535Z,13.80
2022-07-28T02:42:00.027Z,13.80
2022-07-28T02:44:30.625Z,13.80
2022-07-28T02:47:01.872Z,13.80
2022-07-28T02:49:32.496Z,13.80
2022-07-28T02:52:03.006Z,13.80
2022-07-28T02:54:32.882Z,13.80
2022-07-28T02:57:02.038Z,13.70
2022-07-28T02:59:31.148Z,13.70
2022-07-28T03:02:01.214Z,13.70
2022-07-28T03:04:48.081Z,13.80
2022-07-28T03:07:17.035Z,13.80
2022-07-28T03:09:46.845Z,13.80
2022-07-28T03:12:15.706Z,13.80
2022-07-28T03:14:43.880Z,13.70
2022-07-28T03:17:13.422Z,13.70
2022-07-28T03:19:41.440Z,13.70
2022-07-28T03:22:10.443Z,13.70
2022-07-28T03:24:41.194Z,13.70
2022-07-28T03:27:23.818Z,13.70
2022-07-28T03:29:57.172Z,13.70
2022-07-28T03:32:32.448Z,13.70
2022-07-28T03:35:01.727Z,13.70
2022-07-28T03:37:36.956Z,13.70
2022-07-28T03:40:06.251Z,13.70
2022-07-28T03:42:35.403Z,13.60
2022-07-28T03:45:04.194Z,13.60
2022-07-28T03:47:33.730Z,13.60
2022-07-28T03:50:01.748Z,13.60
2022-07-28T03:52:29.718Z,13.60
2022-07-28T03:54:57.667Z,13.60
2022-07-28T03:57:25.946Z,13.60
2022-07-28T03:59:53.900Z,13.60
2022-07-28T04:02:21.902Z,13.60
2022-07-28T04:04:51.331Z,13.60
2022-07-28T04:07:19.287Z,13.60
2022-07-28T04:09:47.205Z,13.60
2022-07-28T04:12:15.140Z,13.60
2022-07-28T04:14:43.481Z,13.60
2022-07-28T04:17:11.523Z,13.60
2022-07-28T04:19:39.524Z,13.60
2022-07-28T04:22:08.884Z,13.60
2022-07-28T04:24:36.832Z,13.60
2022-07-28T04:27:04.992Z,13.60
2022-07-28T04:29:32.931Z,13.60
2022-07-28T04:32:01.029Z,13.60
2022-07-28T04:34:28.924Z,13.60
2022-07-28T04:36:56.848Z,13.60
2022-07-28T04:39:26.134Z,13.70
2022-07-28T04:41:54.147Z,13.70
2022-07-28T04:44:22.067Z,13.70
2022-07-28T04:46:49.980Z,13.70
2022-07-28T04:49:18.040Z,13.80
2022-07-28T04:51:49.379Z,13.80
2022-07-28T04:54:19.959Z,13.80
2022-07-28T04:56:51.254Z,13.80
2022-07-28T04:59:19.441Z,13.90
2022-07-28T05:01:48.850Z,13.80
2022-07-28T05:04:17.560Z,13.80
2022-07-28T05:06:45.808Z,13.80
2022-07-28T05:09:13.722Z,13.80
2022-07-28T05:11:41.686Z,13.70
2022-07-28T05:14:12.581Z,13.70
2022-07-28T05:16:41.609Z,13.70
2022-07-28T05:19:09.962Z,13.70
2022-07-28T05:21:38.002Z,13.80
2022-07-28T05:24:06.877Z,13.80
2022-07-28T05:26:35.177Z,13.80
2022-07-28T05:29:03.176Z,13.80
2022-07-28T05:31:32.662Z,13.80
2022-07-28T05:34:00.623Z,13.80
2022-07-28T05:36:28.597Z,13.80
2022-07-28T05:38:56.517Z,13.90
2022-07-28T05:41:24.485Z,14.00
2022-07-28T05:43:52.426Z,14.10
2022-07-28T05:46:22.187Z,14.30
2022-07-28T05:48:51.840Z,14.40
2022-07-28T05:51:20.142Z,14.50
2022-07-28T05:53:48.121Z,14.60
2022-07-28T05:56:16.086Z,14.70
2022-07-28T05:58:44.335Z,14.90
2022-07-28T06:01:12.385Z,15.00
2022-07-28T06:03:42.494Z,15.10
2022-07-28T06:06:16.284Z,15.10
2022-07-28T06:08:46.302Z,15.10
2022-07-28T06:11:22.024Z,15.20
2022-07-28T06:13:51.453Z,15.20
2022-07-28T06:16:20.721Z,15.30
2022-07-28T06:18:48.985Z,15.30
2022-07-28T06:21:18.527Z,15.30
2022-07-28T06:23:46.622Z,15.30
2022-07-28T06:26:14.605Z,15.30
2022-07-28T06:28:42.800Z,15.20
2022-07-28T06:31:10.800Z,15.20
2022-07-28T06:33:38.803Z,15.20
2022-07-28T06:36:07.203Z,15.20
2022-07-28T06:38:36.562Z,15.30
2022-07-28T06:41:04.614Z,15.50
2022-07-28T06:43:36.791Z,15.60
2022-07-28T06:46:06.850Z,15.80
2022-07-28T06:48:37.520Z,16.00
2022-07-28T06:51:05.864Z,16.20
2022-07-28T06:53:34.784Z,16.30
2022-07-28T06:56:05.083Z,16.40
2022-07-28T06:58:33.338Z,16.50
2022-07-28T07:01:02.609Z,16.50
2022-07-28T07:03:30.718Z,16.60
2022-07-28T07:05:58.731Z,16.50
2022-07-28T07:08:26.676Z,16.50
2022-07-28T07:10:54.922Z,16.60
2022-07-28T07:13:24.226Z,16.50
2022-07-28T07:15:52.296Z,16.50
2022-07-28T07:18:20.274Z,16.50
2022-07-28T07:20:49.015Z,16.50
2022-07-28T07:23:16.985Z,16.50
2022-07-28T07:25:44.909Z,16.50
2022-07-28T07:28:12.835Z,16.50
2022-07-28T07:30:42.455Z,16.50
2022-07-28T07:33:10.806Z,16.60
2022-07-28T07:35:39.033Z,16.70
2022-07-28T07:38:07.157Z,16.80
2022-07-28T07:40:35.520Z,16.90
2022-07-28T07:43:03.681Z,17.00
2022-07-28T07:45:31.642Z,17.20
2022-07-28T07:48:03.210Z,17.20
2022-07-28T07:50:31.552Z,17.20
2022-07-28T07:52:59.564Z,17.40
2022-07-28T07:55:27.585Z,17.60
2022-07-28T07:58:02.374Z,17.70
2022-07-28T08:00:30.610Z,17.80
2022-07-28T08:02:58.906Z,17.90
2022-07-28T08:05:34.759Z,17.90
2022-07-28T08:08:05.074Z,18.00
2022-07-28T08:10:33.288Z,18.00
2022-07-28T08:13:01.283Z,18.10
2022-07-28T08:15:29.256Z,18.20
2022-07-28T08:17:57.377Z,18.20
2022-07-28T08:20:25.336Z,18.20
2022-07-28T08:22:56.578Z,18.10
2022-07-28T08:25:25.391Z,18.00
2022-07-28T08:27:53.292Z,17.80
2022-07-28T08:30:23.224Z,17.80
2022-07-28T08:32:56.483Z,17.80
2022-07-28T08:35:35.102Z,18.00
2022-07-28T08:38:06.289Z,18.10
2022-07-28T08:40:39.141Z,18.10
2022-07-28T08:43:16.279Z,18.20
2022-07-28T08:45:47.149Z,18.10
2022-07-28T08:48:17.470Z,18.00
2022-07-28T08:50:47.135Z,18.00
2022-07-28T08:53:16.703Z,18.10
2022-07-28T08:55:45.274Z,18.30
2022-07-28T08:58:13.914Z,18.30
2022-07-28T09:00:42.714Z,18.30
2022-07-28T09:03:13.115Z,18.40
2022-07-28T09:05:43.997Z,18.50
2022-07-28T09:08:13.181Z,18.50
2022-07-28T09:10:42.464Z,18.70
2022-07-28T09:13:13.384Z,18.70
2022-07-28T09:15:41.749Z,18.60
2022-07-28T09:18:09.726Z,18.70
2022-07-28T09:20:38.721Z,18.50
2022-07-28T09:23:42.961Z,18.50
2022-07-28T09:26:11.523Z,18.50
2022-07-28T09:28:53.996Z,18.60
2022-07-28T09:31:24.059Z,18.80
2022-07-28T09:34:01.280Z,18.70
2022-07-28T09:36:29.913Z,18.60
2022-07-28T09:38:59.045Z,18.60
2022-07-28T09:41:28.329Z,18.60
2022-07-28T09:43:56.314Z,18.50
2022-07-28T09:46:25.925Z,18.50
2022-07-28T09:48:57.403Z,18.60
2022-07-28T09:51:27.759Z,18.60
2022-07-28T09:54:08.436Z,18.60
2022-07-28T09:56:38.165Z,18.70
2022-07-28T09:59:06.813Z,18.80
2022-07-28T10:01:51.865Z,18.90
2022-07-28T10:04:30.048Z,19.10
2022-07-28T10:07:03.370Z,19.20
2022-07-28T10:09:31.329Z,19.40
2022-07-28T10:14:59.418Z,19.40
2022-07-28T10:17:30.122Z,19.40
2022-07-28T10:19:59.050Z,19.30
2022-07-28T10:22:29.174Z,19.30
2022-07-28T10:24:59.270Z,19.30
2022-07-28T10:27:28.728Z,19.40
2022-07-28T10:30:00.185Z,19.50
2022-07-28T10:32:29.528Z,19.40
2022-07-28T10:35:02.606Z,19.30
2022-07-28T10:37:36.443Z,19.30
2022-07-28T10:40:10.381Z,19.50
2022-07-28T10:42:40.520Z,19.60
2022-07-28T10:45:12.057Z,19.70
2022-07-28T10:47:40.094Z,19.70
2022-07-28T10:50:09.516Z,19.70
2022-07-28T10:52:48.863Z,19.90
2022-07-28T10:55:32.175Z,20.00
2022-07-28T10:58:13.121Z,19.90
2022-07-28T11:00:59.834Z,19.90
2022-07-28T11:03:42.910Z,20.00
2022-07-28T11:06:31.330Z,19.90
2022-07-28T11:09:00.881Z,19.90
2022-07-28T11:11:44.677Z,19.80
2022-07-28T11:14:37.668Z,19.80
2022-07-28T11:17:33.496Z,19.90
2022-07-28T11:20:27.478Z,19.90
2022-07-28T11:22:51.711Z,19.80
2022-07-28T11:25:22.188Z,19.80
2022-07-28T11:28:06.792Z,19.90
2022-07-28T11:30:54.683Z,20.00
2022-07-28T11:33:25.087Z,20.00
2022-07-28T11:36:00.571Z,20.00
2022-07-28T11:38:30.494Z,20.00
2022-07-28T11:40:58.479Z,20.20
2022-07-28T11:43:36.130Z,20.20
2022-07-28T11:46:37.720Z,20.20
2022-07-28T11:49:23.016Z,20.20
2022-07-28T11:52:10.237Z,20.20
2022-07-28T11:54:39.134Z,20.10
2022-07-28T11:57:09.823Z,20.00
2022-07-28T11:59:49.719Z,19.90
2022-07-28T12:02:19.960Z,19.80
2022-07-28T12:04:59.773Z,19.80
2022-07-28T12:07:39.785Z,19.70
2022-07-28T12:13:26.921Z,20.10
2022-07-28T12:15:54.955Z,20.10
2022-07-28T12:18:25.085Z,20.20
2022-07-28T12:20:55.461Z,20.30
2022-07-28T12:23:39.170Z,20.30
2022-07-28T12:26:31.224Z,20.20
2022-07-28T12:29:00.165Z,20.20
2022-07-28T12:31:32.904Z,20.20
2022-07-28T12:34:01.226Z,20.10
2022-07-28T12:36:31.064Z,20.30
2022-07-28T12:38:59.725Z,20.20
2022-07-28T12:41:33.351Z,20.20
2022-07-28T12:44:05.548Z,20.20
2022-07-28T12:46:34.298Z,20.20
2022-07-28T12:49:03.169Z,20.10
2022-07-28T12:51:33.947Z,20.10
2022-07-28T12:54:02.118Z,20.10
2022-07-28T12:56:30.141Z,20.20
2022-07-28T12:59:05.896Z,20.30
2022-07-28T13:01:50.743Z,20.40
2022-07-28T13:04:37.790Z,20.30
2022-07-28T13:07:09.801Z,20.20
2022-07-28T13:09:41.477Z,20.30
2022-07-28T13:12:16.402Z,20.40
2022-07-28T13:14:45.843Z,20.60
2022-07-28T13:17:13.867Z,20.60
2022-07-28T13:19:41.729Z,20.60
2022-07-28T13:22:11.094Z,20.50
2022-07-28T13:24:39.054Z,20.40
2022-07-28T13:27:08.754Z,20.40
2022-07-28T13:29:36.975Z,20.50
2022-07-28T13:32:05.105Z,20.70
2022-07-28T13:34:33.028Z,20.60
2022-07-28T13:37:01.068Z,20.40
2022-07-28T13:39:30.245Z,20.50
2022-07-28T13:41:59.292Z,20.60
2022-07-28T13:44:27.794Z,20.50
2022-07-28T13:46:56.670Z,20.40
2022-07-28T13:49:27.767Z,20.50
2022-07-28T13:51:55.920Z,20.50
2022-07-28T13:54:25.419Z,20.60
2022-07-28T13:56:54.899Z,20.70
2022-07-28T13:59:24.049Z,20.70
2022-07-28T14:01:55.349Z,20.70
2022-07-28T14:04:23.601Z,20.60
2022-07-28T14:06:51.819Z,20.80
2022-07-28T14:09:21.252Z,20.90
2022-07-28T14:11:54.182Z,20.90
2022-07-28T14:14:25.108Z,20.90
2022-07-28T14:16:54.990Z,21.00
2022-07-28T14:19:37.870Z,21.10
2022-07-28T14:22:12.861Z,21.10
2022-07-28T14:24:41.554Z,21.20
2022-07-28T14:27:10.537Z,21.30
2022-07-28T14:29:41.183Z,21.30
2022-07-28T14:32:09.144Z,21.40
2022-07-28T14:34:37.059Z,21.40
2022-07-28T14:37:08.813Z,21.50
2022-07-28T14:39:37.517Z,21.60
2022-07-28T14:42:05.712Z,21.60
2022-07-28T14:44:33.669Z,21.50
2022-07-28T14:47:03.381Z,21.40
2022-07-28T14:49:31.396Z,21.20
2022-07-28T14:52:02.304Z,21.10
2022-07-28T14:54:30.399Z,21.00
2022-07-28T14:56:58.284Z,20.90
2022-07-28T14:59:26.169Z,20.80
2022-07-28T15:01:54.191Z,20.70
2022-07-28T15:04:23.522Z,20.70
2022-07-28T15:06:51.401Z,20.70
2022-07-28T15:09:19.552Z,20.60
2022-07-28T15:11:47.698Z,20.60
2022-07-28T15:14:16.239Z,20.60
2022-07-28T15:16:48.360Z,20.50
2022-07-28T15:19:16.283Z,20.50
2022-07-28T15:21:47.559Z,20.50
2022-07-28T15:24:16.495Z,20.50
2022-07-28T15:26:44.639Z,20.50
2022-07-28T15:29:12.565Z,20.50
2022-07-28T15:31:42.562Z,20.60
2022-07-28T15:34:13.470Z,20.60
2022-07-28T15:36:41.522Z,20.70
2022-07-28T15:39:14.040Z,20.80
2022-07-28T15:41:42.971Z,20.90
2022-07-28T15:44:12.209Z,21.10
2022-07-28T15:46:40.688Z,21.20
2022-07-28T15:49:11.030Z,21.20
2022-07-28T15:51:40.560Z,21.10
2022-07-28T15:54:10.013Z,21.10
2022-07-28T15:56:37.980Z,21.00
2022-07-28T15:59:08.149Z,21.00
2022-07-28T16:01:36.124Z,21.00
2022-07-28T16:04:04.118Z,21.00
2022-07-28T16:06:45.891Z,21.00
2022-07-28T16:09:15.177Z,20.90
2022-07-28T16:11:43.215Z,20.80
2022-07-28T16:14:11.547Z,20.80
2022-07-28T16:16:39.874Z,20.70
2022-07-28T16:19:25.156Z,20.70
2022-07-28T16:21:57.060Z,20.70
2022-07-28T16:24:26.307Z,20.60
2022-07-28T16:26:54.201Z,20.70
2022-07-28T16:29:22.120Z,20.70
2022-07-28T16:31:50.012Z,20.60
2022-07-28T16:34:18.267Z,20.60
2022-07-28T16:36:46.369Z,20.60
2022-07-28T16:39:14.398Z,20.50
2022-07-28T16:41:46.760Z,20.50
2022-07-28T16:44:17.054Z,20.40
2022-07-28T16:46:45.467Z,20.40
2022-07-28T16:49:13.454Z,20.40
2022-07-28T16:51:41.379Z,20.40
2022-07-28T16:54:09.274Z,20.40
2022-07-28T16:56:37.174Z,20.40
2022-07-28T16:59:06.379Z,20.40
2022-07-28T17:01:34.344Z,20.40
2022-07-28T17:04:03.038Z,20.40
2022-07-28T17:06:31.022Z,20.40
2022-07-28T17:08:58.925Z,20.30
2022-07-28T17:11:26.769Z,20.30
2022-07-28T17:13:56.366Z,20.20
2022-07-28T17:16:25.609Z,20.20
2022-07-28T17:18:53.670Z,20.20
2022-07-28T17:21:23.177Z,20.20
2022-07-28T17:23:51.035Z,20.20
2022-07-28T17:29:06.970Z,20.10
2022-07-28T17:31:36.270Z,20.10
2022-07-28T17:34:04.222Z,20.10
2022-07-28T17:36:35.550Z,20.10
2022-07-28T17:39:04.585Z,20.10
2022-07-28T17:41:34.429Z,20.10
2022-07-28T17:44:02.563Z,20.00
2022-07-28T17:46:30.476Z,20.00
2022-07-28T17:49:00.531Z,19.90
2022-07-28T17:51:30.793Z,19.90
2022-07-28T17:53:58.792Z,19.80
2022-07-28T17:56:31.381Z,19.80
2022-07-28T17:58:59.621Z,19.80
2022-07-28T18:01:27.541Z,19.80
2022-07-28T18:03:57.649Z,19.80
2022-07-28T18:06:39.822Z,19.70
2022-07-28T18:09:09.936Z,19.70
2022-07-28T18:11:56.919Z,19.70
2022-07-28T18:14:27.174Z,19.70
2022-07-28T18:16:58.845Z,19.70
2022-07-28T18:19:27.143Z,19.70
2022-07-28T18:21:56.803Z,19.70
2022-07-28T18:24:26.480Z,19.60
2022-07-28T18:26:56.176Z,19.60
2022-07-28T18:29:24.853Z,19.60
2022-07-28T18:31:53.418Z,19.60
2022-07-28T18:34:23.325Z,19.50
2022-07-28T18:36:53.229Z,19.50
2022-07-28T18:39:22.730Z,19.50
2022-07-28T18:41:50.587Z,19.40
2022-07-28T18:44:19.384Z,19.40
2022-07-28T18:46:48.266Z,19.30
2022-07-28T18:49:16.557Z,19.30
2022-07-28T18:51:45.629Z,19.30
2022-07-28T18:54:17.412Z,19.30
2022-07-28T18:56:52.289Z,19.20
2022-07-28T18:59:23.523Z,19.20
2022-07-28T19:01:51.449Z,19.20
2022-07-28T19:04:20.144Z,19.20
2022-07-28T19:06:48.166Z,19.10
2022-07-28T19:09:18.737Z,19.10
2022-07-28T19:11:49.131Z,19.10
2022-07-28T19:14:19.002Z,19.00
2022-07-28T19:16:47.232Z,19.00
2022-07-28T19:19:15.393Z,18.90
2022-07-28T19:21:43.872Z,18.90
2022-07-28T19:24:14.465Z,18.90
2022-07-28T19:26:44.104Z,18.80
2022-07-28T19:29:12.627Z,18.80
2022-07-28T19:31:42.311Z,18.80
2022-07-28T19:34:10.861Z,18.80
2022-07-28T19:36:40.387Z,18.70
2022-07-28T19:39:12.157Z,18.70
2022-07-28T19:41:40.344Z,18.60
2022-07-28T19:44:11.909Z,18.50
2022-07-28T19:46:41.528Z,18.50
2022-07-28T19:49:11.772Z,18.50
2022-07-28T19:51:39.855Z,18.50
2022-07-28T19:54:07.761Z,18.40
2022-07-28T19:56:39.576Z,18.30
2022-07-28T19:59:07.948Z,18.30
2022-07-28T20:01:46.011Z,18.30
2022-07-28T20:04:16.887Z,18.30
2022-07-28T20:06:45.121Z,18.30
2022-07-28T20:09:13.605Z,18.30
2022-07-28T20:11:41.523Z,18.20
2022-07-28T20:14:09.496Z,18.20
2022-07-28T20:16:37.460Z,18.20
2022-07-28T20:19:05.907Z,18.10
2022-07-28T20:21:39.395Z,18.10
2022-07-28T20:24:07.999Z,18.10
2022-07-28T20:26:35.861Z,18.00
2022-07-28T20:29:05.845Z,18.00
2022-07-28T20:31:34.331Z,17.90
2022-07-28T20:34:06.513Z,17.90
2022-07-28T20:36:37.203Z,17.90
2022-07-28T20:39:27.623Z,17.90
2022-07-28T20:41:55.271Z,17.80
2022-07-28T20:44:30.706Z,17.80
2022-07-28T20:47:00.385Z,17.80
2022-07-28T20:49:28.680Z,17.70
2022-07-28T20:51:56.719Z,17.70
2022-07-28T20:54:26.198Z,17.60
2022-07-28T20:56:54.180Z,17.60
2022-07-28T20:59:27.375Z,17.60
2022-07-28T21:01:56.049Z,17.50
2022-07-28T21:04:24.463Z,17.50
2022-07-28T21:06:56.557Z,17.50
2022-07-28T21:09:33.530Z,17.40
2022-07-28T21:12:04.087Z,17.40
2022-07-28T21:14:33.871Z,17.40
2022-07-28T21:17:02.025Z,17.30
2022-07-28T21:19:29.963Z,17.30
2022-07-28T21:21:57.843Z,17.20
2022-07-28T21:24:25.768Z,17.20
2022-07-28T21:26:55.022Z,17.20
2022-07-28T21:32:04.447Z,17.20
2022-07-28T21:34:34.438Z,17.10
2022-07-28T21:37:02.590Z,17.10
2022-07-28T21:39:30.671Z,17.10
2022-07-28T21:42:00.239Z,17.00
2022-07-28T21:44:30.334Z,17.00
2022-07-28T21:46:58.251Z,17.00
2022-07-28T21:49:28.555Z,16.90
2022-07-28T21:51:56.442Z,16.90
2022-07-28T21:54:24.619Z,16.90
2022-07-28T21:56:52.578Z,16.80
2022-07-28T21:59:21.863Z,16.80
2022-07-28T22:01:49.881Z,16.80
2022-07-28T22:04:18.392Z,16.80
2022-07-28T22:06:46.934Z,16.80
2022-07-28T22:09:15.098Z,16.80
2022-07-28T22:11:43.279Z,16.80
2022-07-28T22:14:11.558Z,16.70
2022-07-28T22:16:40.844Z,16.70
2022-07-28T22:19:11.715Z,16.70
2022-07-28T22:21:39.568Z,16.60
2022-07-28T22:24:08.598Z,16.60
2022-07-28T22:26:36.465Z,16.60
2022-07-28T22:29:04.434Z,16.60
2022-07-28T22:31:32.368Z,16.60
2022-07-28T22:34:01.607Z,16.50
2022-07-28T22:36:29.421Z,16.50
2022-07-28T22:38:57.362Z,16.50
2022-07-28T22:41:25.200Z,16.50
2022-07-28T22:43:54.313Z,16.40
2022-07-28T22:46:22.166Z,16.40
2022-07-28T22:48:50.173Z,16.40
2022-07-28T22:51:19.374Z,16.30
2022-07-28T22:53:47.398Z,16.30
2022-07-28T22:59:00.765Z,16.20
2022-07-28T23:01:28.765Z,16.20
2022-07-28T23:03:56.836Z,16.20
2022-07-28T23:06:26.424Z,16.20
2022-07-28T23:08:54.416Z,16.10
2022-07-28T23:11:22.367Z,16.10
2022-07-28T23:13:50.342Z,16.10
2022-07-28T23:16:18.286Z,16.10
2022-07-28T23:18:46.261Z,16.10
2022-07-28T23:21:14.197Z,16.10
2022-07-28T23:23:43.583Z,16.10
2022-07-28T23:26:11.504Z,16.10
2022-07-28T23:28:39.484Z,16.00
2022-07-28T23:31:07.885Z,16.00
2022-07-28T23:33:55.830Z,16.00
2022-07-28T23:36:26.402Z,16.00
2022-07-28T23:38:57.963Z,16.00
2022-07-28T23:41:26.939Z,16.00
2022-07-28T23:43:54.969Z,16.00
2022-07-28T23:46:24.337Z,16.00
2022-07-28T23:48:52.420Z,15.90
2022-07-28T23:51:21.246Z,15.90
2022-07-28T23:53:55.939Z,15.90
2022-07-28T23:56:25.688Z,15.90
2022-07-28T23:58:53.609Z,15.90
